INFORMACIÓN METAR y TAF
METAR FOR GMMX
ADDS - METARS form results

(0651 UTC 24 June 2017)
Data provider http://aviationweather.gov/adds/metars/
 
METAR text: GMMX 240630Z VRB02KT 9999 SCT093 26/03 Q1015 NOSIG
Conditions at: GMMX observed 0630 UTC 24 June 2017
Temperature: 26.0°C (79°F)
Dewpoint: 3.0°C (37°F) [RH = 23%]
Pressure (altimeter): 29.97 inches Hg (1015.0 mb)
Winds: variable direction winds at 2 MPH (2 knots; 1.0 m/s)
Visibility: 6 or more miles (10+ km)
Ceiling: at least 12,000 feet AGL
Clouds: scattered clouds at 9300 feet AGL
Weather: no significant weather observed at this time

METAR text: GMMX 240600Z 24005KT 9999 SCT093 25/05 Q1015 NOSIG
Conditions at: GMMX observed 0600 UTC 24 June 2017
Temperature: 25.0°C (77°F)
Dewpoint: 5.0°C (41°F) [RH = 28%]
Pressure (altimeter): 29.97 inches Hg (1015.0 mb)
Winds: from the WSW (240 degrees) at 6 MPH (5 knots; 2.6 m/s)
Visibility: 6 or more miles (10+ km)
Ceiling: at least 12,000 feet AGL
Clouds: scattered clouds at 9300 feet AGL
Weather: no significant weather observed at this time

Forecast for: GMMX
Text: TAF GMMX 240500Z 2406/2512 04006KT 8000 SCT100
Forecast period: 0600 UTC 24 June 2017 to 1200 UTC 25 June 2017
Forecast type: FROM: standard forecast or significant change
Winds: from the NE (40 degrees) at 7 MPH (6 knots; 3.1 m/s)
Visibility: 5 miles (8 km)
Clouds: scattered clouds at 10000 feet AGL
Weather: no significant weather forecast for this period
Text: TEMPO 2415/2420 32016KT SCT030 FEW040CB
Forecast period: 1500 to 2000 UTC 24 June 2017
Forecast type: TEMPORARY: The following changes expected for less than half the time period
Winds: from the NW (320 degrees) at 18 MPH (16 knots; 8.3 m/s)
Clouds: scattered clouds at 3000 feet AGL
few clouds at 4000 feet AGL
Weather: no significant weather forecast for this period

 MAPA DE AEROPUERTO

 INFORMACIÓN DE PISTA
Pista 10 Longitud 10170 ft Ancho 148 ft
Elevación 1506 ft Umbral desplazado 918 ft Rumbo de pista 96
Pista 28 Longitud 10170 ft Ancho 148 ft
Elevación 1545 ft Umbral desplazado 0 ft Rumbo de pista 276

 FRECUANCIAS DEL AEROPUERTO
Tipo APP Nombre MARRAKECH Frecuencia 119.7 MHZ
Tipo TWR Nombre MARRAKECH Frecuencia 118.7 MHZ

 RADIO AYUDAS DEL AEROPUERTO
Tipo NDB Nombre Marrakech Frecuencia 267 KHZ
Tipo VOR-DME Nombre Marrakech Frecuencia 113300 KHZ



Nuestro objetivo, educar a través de la simulación aérea y las redes de vuelo on line la cultura aeronáutica y el conocimiento técnico y operativo de volar un avión comercial; Ayudar en la formación de personas y o profesionales de aquellos que desea llegar a ser piloto privado o de líneas aéreas, militar, controlador aéreo, o conocer el mundo del tráfico aéreo, la simulación aérea, el vuelo, y todo lo referente con la aeronáutica.

Copyright 2006 - 2017
Clickair-Va desde 2006 son marcas registradas con permiso de Vueling S.A
Patrocinado por ACAE
Los foros de Clickair VA son foros privados para los miembros de la VA

Powered by Virtual Airlines Manager